Time;durP1;ratioP1;P1;durP2;ratioP2;P2;SDS_P1;SDS_P2;PMS_P1;PMS_P2;Temp;Humidity;BMP_temperature;BMP_pressure;BME280_temperature;BME280_humidity;BME280_pressure;Samples;Min_cycle;Max_cycle;Signal;HPM_P1;HPM_P2
2021/12/04 00:02:06;;;;;;;0.80;0.80;;;17.80;48.70;;;;;;4944683;29;20203;-21
2021/12/04 00:04:38;;;;;;;1.07;0.70;;;17.80;48.70;;;;;;4960465;29;20309;-25
2021/12/04 00:07:06;;;;;;;1.03;0.90;;;17.80;48.80;;;;;;4944831;29;20192;-23
2021/12/04 00:09:32;;;;;;;1.03;0.90;;;17.70;48.80;;;;;;4961825;29;20244;-24
2021/12/04 00:12:03;;;;;;;0.97;0.90;;;17.70;49.20;;;;;;4959964;29;20218;-23
2021/12/04 00:14:30;;;;;;;1.80;0.80;;;17.70;48.90;;;;;;4961287;29;20540;-21
2021/12/04 00:16:57;;;;;;;0.80;0.80;;;17.70;48.90;;;;;;4960960;29;20197;-24
2021/12/04 00:19:25;;;;;;;1.07;0.80;;;17.80;48.90;;;;;;4961753;29;20226;-25
2021/12/04 00:21:52;;;;;;;0.87;0.87;;;17.70;49.00;;;;;;4945077;29;20210;-23
2021/12/04 00:24:18;;;;;;;0.80;0.80;;;17.80;48.90;;;;;;4944262;29;20604;-23
2021/12/04 00:26:48;;;;;;;0.90;0.83;;;17.80;49.00;;;;;;4961595;29;20215;-23
2021/12/04 00:29:13;;;;;;;1.07;0.80;;;17.70;49.00;;;;;;4961527;29;20199;-23
2021/12/04 00:31:45;;;;;;;0.70;0.70;;;17.70;49.00;;;;;;4959987;29;20382;-21
2021/12/04 00:34:16;;;;;;;1.23;0.80;;;17.80;49.10;;;;;;4961192;29;20256;-23
2021/12/04 00:50:18;;;;;;;1.27;0.60;;;17.70;49.20;;;;;;4960739;29;20253;-22
2021/12/04 00:52:43;;;;;;;1.47;0.77;;;17.70;49.30;;;;;;4960352;29;20202;-23
2021/12/04 00:55:11;;;;;;;0.80;0.80;;;17.70;49.30;;;;;;4960555;29;20289;-22
2021/12/04 00:57:38;;;;;;;0.90;0.67;;;17.70;49.30;;;;;;4959690;29;20638;-23
2021/12/04 01:00:09;;;;;;;1.23;0.80;;;17.70;49.40;;;;;;4960454;29;20607;-24
2021/12/04 01:02:35;;;;;;;0.70;0.70;;;17.70;49.40;;;;;;4960283;29;20613;-23
2021/12/04 01:05:01;;;;;;;0.80;0.80;;;17.60;49.40;;;;;;4943988;29;20234;-22
2021/12/04 01:07:26;;;;;;;1.13;0.83;;;17.60;49.40;;;;;;4960437;29;20206;-24
2021/12/04 01:09:53;;;;;;;0.80;0.70;;;17.60;49.50;;;;;;4959885;29;20235;-23
2021/12/04 01:12:19;;;;;;;1.00;0.90;;;17.60;49.50;;;;;;4942121;29;20185;-23
2021/12/04 01:14:45;;;;;;;1.67;0.63;;;17.60;50.00;;;;;;4960442;29;20213;-25
2021/12/04 01:17:10;;;;;;;0.70;0.70;;;17.60;49.60;;;;;;4960984;29;20205;-24
2021/12/04 01:19:37;;;;;;;0.70;0.70;;;17.60;49.70;;;;;;4960379;29;20204;-25
2021/12/04 01:22:04;;;;;;;0.77;0.77;;;17.60;49.70;;;;;;4959954;29;20483;-23
2021/12/04 01:24:30;;;;;;;0.60;0.60;;;17.50;49.70;;;;;;4942747;29;20219;-23
2021/12/04 01:26:56;;;;;;;0.70;0.70;;;17.50;49.80;;;;;;4943580;29;20276;-24
2021/12/04 01:29:22;;;;;;;0.90;0.83;;;17.50;49.80;;;;;;4943607;29;20211;-25
2021/12/04 01:31:48;;;;;;;0.70;0.70;;;17.50;49.80;;;;;;4960141;29;20296;-24
2021/12/04 01:34:14;;;;;;;0.70;0.70;;;17.50;49.80;;;;;;4959943;29;20513;-22
2021/12/04 01:36:41;;;;;;;0.80;0.80;;;17.50;49.90;;;;;;4959543;29;20220;-22
2021/12/04 01:39:08;;;;;;;0.70;0.70;;;17.40;49.90;;;;;;4959608;29;20302;-25
2021/12/04 01:41:34;;;;;;;0.80;0.80;;;17.40;50.00;;;;;;4959558;29;20470;-27
2021/12/04 01:44:04;;;;;;;0.93;0.80;;;17.40;50.00;;;;;;4959799;29;20660;-22
2021/12/04 01:46:31;;;;;;;0.70;0.50;;;17.40;50.00;;;;;;4959709;29;20216;-24
2021/12/04 01:48:57;;;;;;;0.77;0.77;;;17.40;50.10;;;;;;4960029;29;20269;-23
2021/12/04 01:51:28;;;;;;;0.70;0.70;;;17.40;50.10;;;;;;4959934;29;20210;-25
2021/12/04 01:53:54;;;;;;;0.97;0.70;;;17.40;50.10;;;;;;4960601;28;20209;-24
2021/12/04 01:56:21;;;;;;;0.80;0.70;;;17.40;50.10;;;;;;4960274;29;20201;-21
2021/12/04 01:58:47;;;;;;;1.23;0.70;;;17.40;50.20;;;;;;4942907;29;20208;-24
2021/12/04 02:01:14;;;;;;;0.70;0.70;;;17.40;50.20;;;;;;4958485;29;20189;-23
2021/12/04 02:03:39;;;;;;;0.70;0.70;;;17.40;50.20;;;;;;4958983;29;20213;-23
2021/12/04 02:06:05;;;;;;;1.60;0.60;;;17.30;50.20;;;;;;4959534;29;20223;-22
2021/12/04 02:08:31;;;;;;;0.83;0.73;;;17.40;50.20;;;;;;4959323;29;20315;-24
2021/12/04 02:10:59;;;;;;;0.70;0.70;;;17.40;50.20;;;;;;4958924;29;20283;-24
2021/12/04 02:13:25;;;;;;;1.77;0.70;;;17.40;50.30;;;;;;4943092;29;20204;-24
2021/12/04 02:15:54;;;;;;;0.50;0.50;;;17.30;50.20;;;;;;4958987;29;20514;-24
2021/12/04 02:18:21;;;;;;;0.70;0.70;;;17.30;50.30;;;;;;4959424;29;20202;-24
2021/12/04 02:20:48;;;;;;;0.60;0.60;;;17.30;50.40;;;;;;4942726;29;20237;-23
2021/12/04 02:23:16;;;;;;;0.87;0.60;;;17.30;50.40;;;;;;4942952;29;20195;-22
2021/12/04 02:25:42;;;;;;;0.70;0.70;;;17.30;50.80;;;;;;4959403;29;20761;-23
2021/12/04 02:28:10;;;;;;;0.70;0.70;;;17.30;50.50;;;;;;4959576;29;20279;-22
2021/12/04 02:30:38;;;;;;;0.70;0.70;;;17.30;50.50;;;;;;4942866;29;20471;-24
2021/12/04 02:33:11;;;;;;;0.63;0.63;;;17.30;50.50;;;;;;4959239;29;20193;-25
2021/12/04 02:35:43;;;;;;;0.70;0.70;;;17.30;50.60;;;;;;4958270;29;20188;-24
2021/12/04 02:38:10;;;;;;;0.60;0.60;;;17.20;50.60;;;;;;4942109;29;20230;-23
2021/12/04 02:40:36;;;;;;;0.67;0.67;;;17.20;50.60;;;;;;4959770;29;20502;-22
2021/12/04 02:43:03;;;;;;;0.70;0.70;;;17.20;50.60;;;;;;4959455;29;20200;-24
2021/12/04 02:45:29;;;;;;;0.70;0.70;;;17.20;50.60;;;;;;4959081;29;20215;-25
2021/12/04 02:47:55;;;;;;;0.83;0.60;;;17.20;50.70;;;;;;4960118;29;20538;-24
2021/12/04 02:50:20;;;;;;;0.53;0.53;;;17.20;50.60;;;;;;4959234;29;20648;-22
2021/12/04 02:52:46;;;;;;;0.73;0.70;;;17.20;50.60;;;;;;4959114;29;20197;-22
2021/12/04 02:55:16;;;;;;;0.60;0.60;;;17.20;50.70;;;;;;4959128;29;20197;-23
2021/12/04 02:57:44;;;;;;;0.80;0.80;;;17.20;50.70;;;;;;4959719;29;20266;-22
2021/12/04 03:00:17;;;;;;;0.70;0.70;;;17.20;50.70;;;;;;4942397;29;20191;-24
2021/12/04 03:02:43;;;;;;;1.30;0.80;;;17.20;50.80;;;;;;4942673;29;20218;-24
2021/12/04 03:05:11;;;;;;;0.60;0.60;;;17.20;50.80;;;;;;4960156;28;20224;-24
2021/12/04 03:07:37;;;;;;;0.70;0.70;;;17.20;50.90;;;;;;4961870;29;20207;-24
2021/12/04 03:10:06;;;;;;;0.50;0.50;;;17.20;50.90;;;;;;4945764;29;20195;-24
2021/12/04 03:12:32;;;;;;;0.50;0.50;;;17.20;50.90;;;;;;4961107;29;20239;-23
2021/12/04 03:14:57;;;;;;;0.70;0.60;;;17.20;50.90;;;;;;4961805;29;20238;-23
2021/12/04 03:17:27;;;;;;;0.60;0.60;;;17.10;51.00;;;;;;4962155;29;20199;-23
2021/12/04 03:19:53;;;;;;;0.80;0.60;;;17.10;51.00;;;;;;4961958;29;20213;-23
2021/12/04 03:22:22;;;;;;;1.07;0.60;;;17.10;51.00;;;;;;4945456;29;20608;-21
2021/12/04 03:24:48;;;;;;;0.60;0.60;;;17.10;51.10;;;;;;4961858;29;20207;-22
2021/12/04 03:27:16;;;;;;;0.53;0.53;;;17.10;51.50;;;;;;4961539;29;20218;-24
2021/12/04 03:30:06;;;;;;;0.77;0.60;;;17.10;51.20;;;;;;4962514;29;20190;-23
2021/12/04 03:42:59;;;;;;;0.50;0.50;;;17.00;51.30;;;;;;4962498;29;20200;-24
2021/12/04 03:45:26;;;;;;;0.90;0.80;;;17.00;51.30;;;;;;4944595;29;20240;-24
2021/12/04 03:47:57;;;;;;;0.60;0.60;;;17.00;51.30;;;;;;4961617;29;20209;-25
2021/12/04 03:50:22;;;;;;;1.13;0.70;;;16.90;51.30;;;;;;4960821;29;20520;-24
2021/12/04 03:52:50;;;;;;;0.93;0.90;;;16.90;51.30;;;;;;4961587;29;20587;-22
2021/12/04 03:55:16;;;;;;;0.70;0.70;;;16.90;51.70;;;;;;4961752;29;20449;-24
2021/12/04 03:57:45;;;;;;;0.70;0.70;;;16.90;51.40;;;;;;4961846;29;20332;-24
2021/12/04 04:00:20;;;;;;;0.70;0.70;;;16.80;51.50;;;;;;4960795;29;20294;-22
2021/12/04 04:02:46;;;;;;;0.80;0.70;;;16.80;51.50;;;;;;4961217;29;20194;-21
2021/12/04 04:05:12;;;;;;;3.03;0.60;;;16.90;51.50;;;;;;4961387;29;20264;-25
2021/12/04 04:07:38;;;;;;;0.60;0.60;;;16.80;51.50;;;;;;4961442;29;20201;-25
2021/12/04 04:10:05;;;;;;;0.90;0.77;;;16.80;51.60;;;;;;4960594;29;20463;-22
2021/12/04 04:12:31;;;;;;;0.60;0.60;;;16.70;51.60;;;;;;4961168;29;20201;-24
2021/12/04 04:14:57;;;;;;;0.60;0.60;;;16.70;51.70;;;;;;4960874;28;20201;-24
2021/12/04 04:17:23;;;;;;;0.70;0.70;;;16.70;51.70;;;;;;4960140;29;20248;-24
2021/12/04 04:19:49;;;;;;;0.73;0.63;;;16.70;51.80;;;;;;4961264;29;20288;-22
2021/12/04 04:22:15;;;;;;;0.63;0.63;;;16.70;51.90;;;;;;4961055;29;20609;-24
2021/12/04 04:24:42;;;;;;;0.70;0.70;;;16.70;52.00;;;;;;4961288;29;20212;-23
2021/12/04 04:27:07;;;;;;;0.60;0.60;;;16.60;51.90;;;;;;4960978;29;20308;-22
2021/12/04 04:29:33;;;;;;;0.80;0.60;;;16.60;52.00;;;;;;4960407;29;20227;-21
2021/12/04 04:32:00;;;;;;;0.53;0.53;;;16.60;52.10;;;;;;4960591;29;20489;-22
2021/12/04 04:34:36;;;;;;;0.60;0.60;;;16.60;52.10;;;;;;4961282;29;20202;-23
2021/12/04 05:15:17;;;;;;;0.67;0.60;;;16.20;53.10;;;;;;4960777;29;20457;-23
2021/12/04 05:20:33;;;;;;;1.03;0.70;;;16.20;53.20;;;;;;4960189;29;20187;-24
2021/12/04 05:23:00;;;;;;;0.60;0.60;;;16.10;53.20;;;;;;4943489;29;20210;-24
2021/12/04 05:25:27;;;;;;;0.70;0.70;;;16.10;53.40;;;;;;4959173;29;20502;-23
2021/12/04 05:27:54;;;;;;;0.83;0.70;;;16.10;53.40;;;;;;4959650;28;20614;-24
2021/12/04 05:30:20;;;;;;;1.10;0.77;;;16.00;53.50;;;;;;4959024;29;20211;-23
2021/12/04 05:32:48;;;;;;;0.80;0.80;;;16.00;53.50;;;;;;4960045;29;20227;-22
2021/12/04 05:35:13;;;;;;;0.70;0.70;;;16.00;53.60;;;;;;4959607;29;20206;-21
2021/12/04 05:37:39;;;;;;;0.70;0.70;;;16.00;53.60;;;;;;4958789;29;20290;-25
2021/12/04 05:40:10;;;;;;;0.63;0.50;;;15.90;53.60;;;;;;4943515;29;20213;-21
2021/12/04 05:42:36;;;;;;;0.57;0.57;;;15.90;53.70;;;;;;4960296;29;20200;-23
2021/12/04 05:45:03;;;;;;;0.50;0.50;;;17.20;53.20;;;;;;4960058;29;20222;-19
2021/12/04 05:47:39;;;;;;;0.70;0.70;;;19.50;48.50;;;;;;4959407;29;20195;-22
2021/12/04 05:55:18;;;;;;;0.83;0.70;;;20.30;45.60;;;;;;4960096;29;20199;-23
2021/12/04 05:57:45;;;;;;;0.83;0.60;;;20.70;45.20;;;;;;4958774;29;20231;-23
2021/12/04 06:00:15;;;;;;;0.90;0.50;;;21.10;44.80;;;;;;4959885;29;20732;-24
2021/12/04 06:02:42;;;;;;;0.83;0.70;;;21.50;44.30;;;;;;4959309;29;20252;-24
2021/12/04 06:05:08;;;;;;;0.67;0.67;;;21.80;43.90;;;;;;4959761;29;20674;-22
2021/12/04 06:07:34;;;;;;;0.50;0.50;;;21.90;43.60;;;;;;4942735;29;20212;-23
2021/12/04 06:10:00;;;;;;;0.50;0.50;;;21.90;43.50;;;;;;4958786;29;20267;-25
2021/12/04 06:12:26;;;;;;;0.60;0.60;;;22.10;43.40;;;;;;4959490;29;20199;-23
2021/12/04 06:14:55;;;;;;;0.60;0.60;;;22.40;43.20;;;;;;4959654;29;20274;-22
2021/12/04 06:17:22;;;;;;;0.63;0.63;;;22.60;42.90;;;;;;4959926;29;20213;-23
2021/12/04 06:22:38;;;;;;;0.57;0.57;;;22.70;42.60;;;;;;4959727;29;20213;-22
2021/12/04 06:25:19;;;;;;;0.90;0.70;;;22.80;42.60;;;;;;4958400;29;20219;-24
2021/12/04 06:27:46;;;;;;;0.53;0.53;;;22.80;42.60;;;;;;4958876;29;20577;-23
2021/12/04 06:30:15;;;;;;;0.67;0.67;;;22.80;43.00;;;;;;4958138;29;20209;-24
2021/12/04 06:32:41;;;;;;;0.50;0.50;;;23.00;42.60;;;;;;4942295;29;20238;-25
2021/12/04 06:35:10;;;;;;;0.67;0.67;;;23.20;42.30;;;;;;4958183;29;20203;-24
2021/12/04 06:37:35;;;;;;;0.60;0.60;;;23.30;42.50;;;;;;4959077;29;20303;-23
2021/12/04 06:40:05;;;;;;;0.70;0.70;;;23.30;42.10;;;;;;4960355;28;20282;-24
2021/12/04 06:42:31;;;;;;;0.93;0.60;;;23.20;42.20;;;;;;4962721;29;20254;-23
2021/12/04 06:44:57;;;;;;;0.50;0.50;;;23.10;42.30;;;;;;4962349;29;20214;-23
2021/12/04 06:47:23;;;;;;;0.60;0.60;;;23.00;42.40;;;;;;4961766;29;20481;-22
2021/12/04 06:50:01;;;;;;;0.83;0.60;;;22.90;42.60;;;;;;4946063;29;20590;-25
2021/12/04 06:52:28;;;;;;;0.60;0.60;;;22.80;42.80;;;;;;4962454;29;20202;-25
2021/12/04 06:54:58;;;;;;;0.70;0.70;;;22.60;42.90;;;;;;4961724;29;20207;-26
2021/12/04 06:57:29;;;;;;;0.83;0.83;;;22.50;43.10;;;;;;4961758;29;20207;-24
2021/12/04 06:59:56;;;;;;;0.60;0.60;;;22.30;43.20;;;;;;4962987;29;20309;-23
2021/12/04 07:02:22;;;;;;;0.67;0.63;;;22.10;43.40;;;;;;4962639;29;20239;-24
2021/12/04 07:04:48;;;;;;;1.13;0.70;;;21.90;43.60;;;;;;4962035;29;20834;-24
2021/12/04 07:07:15;;;;;;;0.90;0.70;;;21.70;43.80;;;;;;4961937;29;20280;-23
2021/12/04 07:09:41;;;;;;;0.50;0.50;;;21.50;44.00;;;;;;4962302;29;20191;-24
2021/12/04 07:12:09;;;;;;;0.70;0.60;;;21.40;44.30;;;;;;4945545;29;20221;-24
2021/12/04 07:14:35;;;;;;;2.83;0.70;;;21.10;44.50;;;;;;4962825;29;20206;-24
2021/12/04 07:17:02;;;;;;;2.53;0.70;;;20.90;44.70;;;;;;4962139;29;20196;-25
2021/12/04 07:19:30;;;;;;;0.80;0.67;;;20.80;45.00;;;;;;4961464;29;20205;-24
2021/12/04 07:21:56;;;;;;;0.87;0.70;;;20.70;45.20;;;;;;4962434;29;20191;-24
2021/12/04 07:24:22;;;;;;;1.37;0.80;;;20.50;45.40;;;;;;4961656;29;20374;-25
2021/12/04 07:26:54;;;;;;;0.80;0.70;;;20.30;46.00;;;;;;4961491;29;20209;-26
2021/12/04 07:29:20;;;;;;;0.93;0.83;;;20.10;45.90;;;;;;4961695;29;20198;-24
2021/12/04 07:31:46;;;;;;;0.83;0.77;;;19.90;46.10;;;;;;4961348;29;20220;-24
2021/12/04 07:34:12;;;;;;;0.87;0.70;;;19.80;46.30;;;;;;4961030;29;20241;-24
2021/12/04 07:36:37;;;;;;;0.83;0.80;;;19.90;46.50;;;;;;4961249;29;20203;-26
2021/12/04 07:39:04;;;;;;;1.10;0.70;;;20.20;46.20;;;;;;4961981;29;20212;-24
2021/12/04 07:41:30;;;;;;;0.50;0.50;;;21.20;45.60;;;;;;4961273;29;20197;-23
2021/12/04 07:43:56;;;;;;;1.33;0.80;;;22.10;44.40;;;;;;4961147;29;20460;-26
2021/12/04 07:46:21;;;;;;;0.83;0.83;;;22.80;43.50;;;;;;4960463;29;20635;-22
2021/12/04 07:48:47;;;;;;;0.70;0.70;;;23.30;42.80;;;;;;4960936;29;20626;-22
2021/12/04 07:51:17;;;;;;;2.10;1.30;;;23.50;42.40;;;;;;4960333;28;20483;-22
2021/12/04 07:53:46;;;;;;;0.80;0.80;;;23.40;42.20;;;;;;4961055;29;20196;-23
2021/12/04 07:56:12;;;;;;;0.97;0.80;;;23.30;42.20;;;;;;4960414;29;20213;-24
2021/12/04 07:58:38;;;;;;;1.60;0.87;;;23.20;42.40;;;;;;4961958;29;20198;-23
2021/12/04 08:01:04;;;;;;;0.70;0.70;;;23.10;42.50;;;;;;4960571;29;20203;-24
2021/12/04 08:03:30;;;;;;;0.80;0.70;;;23.20;42.50;;;;;;4963374;28;20197;-24
2021/12/04 08:05:56;;;;;;;1.00;0.90;;;23.40;42.40;;;;;;4979764;28;20220;-24
2021/12/04 08:08:22;;;;;;;1.07;0.63;;;23.40;42.30;;;;;;4979900;28;20206;-24
2021/12/04 08:10:47;;;;;;;1.27;0.80;;;23.30;42.30;;;;;;4963305;28;20579;-26
2021/12/04 08:13:14;;;;;;;1.00;0.70;;;23.20;42.40;;;;;;4963042;28;20214;-21
2021/12/04 08:15:40;;;;;;;1.50;0.67;;;23.10;42.50;;;;;;4962792;28;20492;-25
2021/12/04 08:18:08;;;;;;;2.33;0.63;;;23.00;42.60;;;;;;4979500;28;20194;-24
2021/12/04 08:20:37;;;;;;;0.70;0.70;;;23.10;42.60;;;;;;4962766;28;20301;-23
2021/12/04 08:23:04;;;;;;;0.87;0.80;;;23.00;42.70;;;;;;4979043;28;20262;-23
2021/12/04 08:25:31;;;;;;;0.63;0.60;;;23.00;42.80;;;;;;4971659;28;20492;-23
2021/12/04 08:28:01;;;;;;;1.83;0.90;;;22.90;42.70;;;;;;4975487;28;20618;-25
2021/12/04 08:30:31;;;;;;;1.17;0.80;;;22.80;42.90;;;;;;4963020;28;20205;-24
2021/12/04 08:32:57;;;;;;;1.07;0.67;;;22.80;42.90;;;;;;4948222;29;20206;-24
2021/12/04 08:35:25;;;;;;;0.70;0.70;;;22.60;43.00;;;;;;4959045;29;20209;-23
2021/12/04 08:37:53;;;;;;;0.80;0.70;;;22.50;43.30;;;;;;4960463;29;20601;-25
2021/12/04 08:40:21;;;;;;;1.90;0.70;;;22.20;43.40;;;;;;4959815;29;20203;-20
2021/12/04 08:42:48;;;;;;;0.60;0.60;;;22.20;43.70;;;;;;4975260;28;20652;-24
2021/12/04 08:45:15;;;;;;;1.07;0.67;;;22.10;43.70;;;;;;4961453;28;20299;-23
2021/12/04 08:47:42;;;;;;;1.33;0.80;;;22.00;43.90;;;;;;4960751;28;20189;-23
2021/12/04 08:50:11;;;;;;;1.57;0.90;;;21.90;44.10;;;;;;4978655;28;20197;-23
2021/12/04 08:52:38;;;;;;;1.10;0.83;;;21.90;44.20;;;;;;4961080;28;20193;-26
2021/12/04 08:55:06;;;;;;;0.97;0.80;;;21.90;44.20;;;;;;4977790;28;20202;-23
2021/12/04 08:57:32;;;;;;;0.90;0.60;;;22.00;44.20;;;;;;4961493;28;20473;-24
2021/12/04 08:59:58;;;;;;;3.10;0.87;;;22.20;44.00;;;;;;4962008;28;20648;-22
2021/12/04 09:02:24;;;;;;;1.67;0.90;;;22.10;44.90;;;;;;4969025;28;20223;-26
2021/12/04 09:04:50;;;;;;;3.87;1.03;;;22.90;44.40;;;;;;4941586;29;20543;-21
2021/12/04 09:07:18;;;;;;;2.40;1.23;;;23.40;43.90;;;;;;4941666;29;20182;-22
2021/12/04 09:09:44;;;;;;;0.97;0.70;;;23.80;43.50;;;;;;4941854;29;20839;-23
2021/12/04 09:12:15;;;;;;;2.37;1.20;;;24.10;43.20;;;;;;4942230;29;20210;-23
2021/12/04 09:14:44;;;;;;;2.50;0.73;;;24.30;43.00;;;;;;4958520;29;20199;-23
2021/12/04 09:17:13;;;;;;;3.17;1.00;;;24.20;43.00;;;;;;4959085;28;20226;-21
2021/12/04 09:19:41;;;;;;;3.37;0.83;;;24.20;43.30;;;;;;4942652;29;20207;-24
2021/12/04 09:22:15;;;;;;;2.23;1.10;;;24.30;43.40;;;;;;4957737;29;20774;-25
2021/12/04 09:24:42;;;;;;;2.83;0.90;;;24.40;43.30;;;;;;4958838;29;20708;-24
2021/12/04 09:27:22;;;;;;;4.67;1.33;;;24.00;43.40;;;;;;4958548;29;20230;-22
2021/12/04 09:30:15;;;;;;;2.43;1.03;;;23.50;43.90;;;;;;4958049;29;20251;-24
2021/12/04 10:20:44;;;;;;;1.63;0.90;;;24.10;43.30;;;;;;4950442;29;20207;-23
2021/12/04 10:34:31;;;;;;;2.57;1.10;;;23.60;44.00;;;;;;4960956;29;20275;-21
2021/12/04 10:37:23;;;;;;;1.83;0.90;;;23.50;44.20;;;;;;4943849;29;20238;-23
2021/12/04 10:40:14;;;;;;;2.00;1.07;;;23.40;44.30;;;;;;4943008;29;20211;-24
2021/12/04 10:42:51;;;;;;;0.97;0.80;;;23.20;44.50;;;;;;4960246;29;20211;-23
2021/12/04 10:45:17;;;;;;;0.97;0.87;;;22.90;44.80;;;;;;4943711;29;20223;-27
2021/12/04 10:47:59;;;;;;;1.03;0.90;;;22.70;45.10;;;;;;4960404;29;20218;-23
2021/12/04 10:50:35;;;;;;;3.10;1.10;;;22.60;45.40;;;;;;4961120;29;20727;-27
2021/12/04 10:53:06;;;;;;;2.30;0.90;;;22.50;45.70;;;;;;4943490;29;20183;-24
2021/12/04 10:55:45;;;;;;;2.43;0.87;;;22.30;45.70;;;;;;4959818;29;20251;-25
2021/12/04 11:01:50;;;;;;;2.63;1.10;;;21.80;46.60;;;;;;4960171;29;20267;-25
2021/12/04 11:21:07;;;;;;;2.00;1.00;;;21.00;48.10;;;;;;4944070;29;20521;-26
2021/12/04 11:26:16;;;;;;;4.43;1.07;;;21.20;47.70;;;;;;4959357;28;20287;-23
2021/12/04 11:42:03;;;;;;;3.60;1.00;;;24.30;43.70;;;;;;4959662;29;20209;-25
2021/12/04 11:44:44;;;;;;;2.07;1.10;;;24.40;43.30;;;;;;4959404;29;20286;-25
2021/12/04 11:47:10;;;;;;;2.47;1.10;;;24.40;43.00;;;;;;4959247;29;20199;-22
2021/12/04 11:49:36;;;;;;;2.23;1.20;;;24.40;42.70;;;;;;4957802;29;20213;-21
2021/12/04 11:52:11;;;;;;;3.57;1.20;;;24.40;42.50;;;;;;4959440;29;20783;-23
2021/12/04 11:54:43;;;;;;;4.00;1.07;;;24.10;42.60;;;;;;4941430;29;20209;-23
2021/12/04 11:57:11;;;;;;;2.40;1.00;;;24.10;42.50;;;;;;4959406;29;20221;-23
2021/12/04 11:59:40;;;;;;;1.93;1.10;;;24.10;42.50;;;;;;4942688;29;20227;-23
2021/12/04 12:02:08;;;;;;;3.37;1.00;;;24.10;42.40;;;;;;4942143;29;20216;-25
2021/12/04 12:04:37;;;;;;;2.30;1.17;;;24.00;42.40;;;;;;4959540;29;20199;-24
2021/12/04 12:07:21;;;;;;;2.50;0.90;;;23.90;42.60;;;;;;4958869;29;20211;-23
2021/12/04 12:09:59;;;;;;;1.20;1.00;;;23.70;42.60;;;;;;4959123;29;20195;-26
2021/12/04 12:12:32;;;;;;;2.77;1.17;;;23.50;42.80;;;;;;4959376;29;20210;-22
2021/12/04 12:15:03;;;;;;;1.33;0.90;;;23.20;43.10;;;;;;4958835;29;20267;-24
2021/12/04 12:17:37;;;;;;;1.60;0.90;;;23.10;43.40;;;;;;4958605;29;20477;-27
2021/12/04 12:20:06;;;;;;;3.13;1.03;;;22.90;43.60;;;;;;4959519;29;20232;-24
2021/12/04 12:22:50;;;;;;;2.40;1.20;;;22.70;43.80;;;;;;4958092;29;20188;-24
2021/12/04 12:25:27;;;;;;;1.70;0.83;;;22.60;44.20;;;;;;4942504;29;20219;-23
2021/12/04 12:36:19;;;;;;;2.03;1.00;;;21.90;45.20;;;;;;4958047;28;20203;-27
2021/12/04 12:38:52;;;;;;;1.10;1.00;;;21.80;45.40;;;;;;4953022;29;20198;-26
2021/12/04 12:41:39;;;;;;;1.70;0.87;;;21.80;45.60;;;;;;4942489;29;20297;-24
2021/12/04 12:44:14;;;;;;;1.70;1.00;;;21.80;45.70;;;;;;4942087;29;20219;-23
2021/12/04 12:47:02;;;;;;;3.60;0.97;;;21.80;45.60;;;;;;4941557;29;20233;-25
2021/12/04 12:49:40;;;;;;;4.50;1.23;;;22.00;45.50;;;;;;4941871;29;20200;-24
2021/12/04 12:52:17;;;;;;;2.50;1.00;;;22.40;45.30;;;;;;4958578;29;20274;-24
2021/12/04 12:54:43;;;;;;;4.13;1.00;;;22.50;45.00;;;;;;4941818;29;20232;-25
2021/12/04 12:57:21;;;;;;;3.43;1.07;;;22.50;44.90;;;;;;4941923;29;20273;-24
2021/12/04 13:13:44;;;;;;;4.87;1.17;;;21.20;46.40;;;;;;4957997;29;20212;-22
2021/12/04 13:16:19;;;;;;;3.33;1.30;;;21.00;46.80;;;;;;4958213;29;20216;-23
2021/12/04 13:18:56;;;;;;;2.07;1.00;;;20.80;47.20;;;;;;4957256;29;20195;-23
2021/12/04 13:21:25;;;;;;;3.10;0.87;;;21.30;46.90;;;;;;4957322;29;20194;-23
2021/12/04 13:23:53;;;;;;;1.63;1.03;;;22.30;46.10;;;;;;4940552;29;20186;-24
2021/12/04 13:26:24;;;;;;;1.83;0.93;;;23.20;44.90;;;;;;4957387;29;20230;-23
2021/12/04 13:28:51;;;;;;;1.73;1.00;;;23.80;44.00;;;;;;4957544;29;20227;-23
2021/12/04 13:31:18;;;;;;;1.73;1.00;;;24.20;43.50;;;;;;4941113;29;20324;-22
2021/12/04 13:33:49;;;;;;;2.30;1.20;;;24.40;43.20;;;;;;4956432;29;20263;-22
2021/12/04 13:36:24;;;;;;;2.93;0.83;;;24.40;43.10;;;;;;4957418;29;20623;-25
2021/12/04 13:39:06;;;;;;;3.83;0.80;;;24.20;43.10;;;;;;4940807;29;20446;-24
2021/12/04 13:41:34;;;;;;;3.80;1.20;;;24.00;43.20;;;;;;4957117;29;20203;-24
2021/12/04 13:44:01;;;;;;;2.47;1.00;;;24.10;43.40;;;;;;4941390;29;20559;-24
2021/12/04 13:46:27;;;;;;;2.30;0.93;;;24.10;43.40;;;;;;4940379;29;20223;-24
2021/12/04 13:49:03;;;;;;;1.83;1.00;;;24.20;43.30;;;;;;4956067;28;20267;-25
2021/12/04 13:51:29;;;;;;;1.77;0.90;;;24.10;43.30;;;;;;4957736;29;20294;-24
2021/12/04 13:53:55;;;;;;;1.47;0.90;;;24.20;43.40;;;;;;4956459;29;20208;-24
2021/12/04 13:56:24;;;;;;;2.23;1.10;;;24.00;43.30;;;;;;4957809;29;20203;-25
2021/12/04 13:58:57;;;;;;;2.67;1.10;;;23.80;43.60;;;;;;4957500;29;20202;-24
2021/12/04 14:01:24;;;;;;;2.33;1.00;;;23.60;43.80;;;;;;4940281;29;20524;-23
2021/12/04 14:03:55;;;;;;;4.17;1.30;;;23.40;44.10;;;;;;4956660;29;20600;-22
2021/12/04 14:06:21;;;;;;;4.50;0.80;;;23.20;44.30;;;;;;4956477;29;20215;-24
2021/12/04 14:09:05;;;;;;;1.80;0.90;;;23.00;44.50;;;;;;4956614;29;20243;-24
2021/12/04 14:11:39;;;;;;;0.77;0.77;;;22.80;44.70;;;;;;4957519;29;20218;-22
2021/12/04 14:14:19;;;;;;;3.90;1.20;;;22.70;45.00;;;;;;4941207;29;20203;-26
2021/12/04 14:16:50;;;;;;;2.83;1.10;;;22.50;45.10;;;;;;4952652;29;20301;-23
2021/12/04 14:19:25;;;;;;;1.57;0.93;;;22.30;45.30;;;;;;4957391;29;20198;-22
2021/12/04 14:22:03;;;;;;;1.30;1.10;;;22.20;45.50;;;;;;4940694;29;20207;-23
2021/12/04 14:24:37;;;;;;;2.47;1.20;;;21.90;45.90;;;;;;4940630;29;20203;-22
2021/12/04 14:27:04;;;;;;;2.83;1.20;;;21.60;46.20;;;;;;4957447;29;20203;-24
2021/12/04 14:29:35;;;;;;;1.53;1.10;;;21.40;46.40;;;;;;4955831;29;20240;-23
2021/12/04 14:32:02;;;;;;;2.90;1.03;;;21.20;46.70;;;;;;4940793;29;20189;-23
2021/12/04 14:34:30;;;;;;;2.10;1.40;;;21.10;46.90;;;;;;4940054;29;20307;-24
2021/12/04 14:37:16;;;;;;;1.63;1.10;;;21.00;47.20;;;;;;4956630;29;20583;-22
2021/12/04 14:39:50;;;;;;;1.27;1.10;;;21.00;47.30;;;;;;4957144;29;20288;-22
2021/12/04 14:42:22;;;;;;;3.70;1.30;;;21.10;47.20;;;;;;4940349;29;20216;-24
2021/12/04 14:44:55;;;;;;;1.40;1.10;;;21.20;47.00;;;;;;4956112;29;20175;-23
2021/12/04 14:47:27;;;;;;;2.43;1.40;;;21.60;47.10;;;;;;4953576;29;20746;-23
2021/12/04 14:50:00;;;;;;;1.23;1.10;;;22.20;46.20;;;;;;4958003;29;20198;-23
2021/12/04 14:52:27;;;;;;;2.60;1.13;;;22.80;45.40;;;;;;4957378;29;20214;-24
2021/12/04 14:54:53;;;;;;;1.73;1.00;;;23.30;44.70;;;;;;4956857;29;20205;-24
2021/12/04 14:57:23;;;;;;;1.70;1.20;;;23.60;44.20;;;;;;4955319;29;20295;-25
2021/12/04 15:00:07;;;;;;;2.00;1.20;;;23.80;43.90;;;;;;4956765;28;20580;-23
2021/12/04 15:02:33;;;;;;;1.60;1.17;;;24.00;43.70;;;;;;4960469;29;20672;-24
2021/12/04 15:04:59;;;;;;;2.27;1.40;;;24.30;43.50;;;;;;4960309;29;20258;-24
2021/12/04 15:07:28;;;;;;;1.60;1.30;;;24.30;43.20;;;;;;4960600;29;20180;-23
2021/12/04 15:09:55;;;;;;;2.07;1.10;;;24.30;43.20;;;;;;4943882;29;20297;-21
2021/12/04 15:12:35;;;;;;;1.20;1.10;;;24.10;43.30;;;;;;4960053;29;20677;-24
2021/12/04 15:15:09;;;;;;;2.33;1.23;;;24.10;43.40;;;;;;4959018;29;20213;-22
2021/12/04 15:17:35;;;;;;;2.23;1.30;;;24.10;43.40;;;;;;4960631;29;20194;-22
2021/12/04 15:20:05;;;;;;;2.00;1.43;;;24.00;43.40;;;;;;4960271;29;20204;-24
2021/12/04 15:22:33;;;;;;;1.50;1.20;;;24.00;43.50;;;;;;4961468;29;20183;-22
2021/12/04 15:24:59;;;;;;;2.97;1.40;;;23.90;43.60;;;;;;4958890;29;20573;-23
2021/12/04 15:27:28;;;;;;;2.00;1.33;;;23.70;43.80;;;;;;4959121;29;20269;-23
2021/12/04 15:29:55;;;;;;;2.60;1.43;;;23.50;44.00;;;;;;4942711;29;20240;-21
2021/12/04 15:32:24;;;;;;;2.13;1.20;;;23.30;44.10;;;;;;4959433;29;20610;-23
2021/12/04 15:34:53;;;;;;;1.30;1.20;;;23.30;44.30;;;;;;4960071;29;20544;-21
2021/12/04 15:37:49;;;;;;;1.90;1.20;;;23.20;44.40;;;;;;4959383;29;20208;-24
2021/12/04 15:40:33;;;;;;;1.20;1.10;;;23.10;44.50;;;;;;4957967;29;20667;-23
2021/12/04 15:43:13;;;;;;;2.97;1.60;;;23.00;44.70;;;;;;4942914;29;20237;-21
2021/12/04 15:45:52;;;;;;;2.83;1.50;;;22.80;44.90;;;;;;4959102;29;20296;-24
2021/12/04 15:51:32;;;;;;;2.67;1.50;;;22.50;45.40;;;;;;4958773;29;20268;-24
2021/12/04 15:53:53;;;;;;;3.50;1.80;;;22.30;45.60;;;;;;4957341;29;20242;-23
2021/12/04 15:56:31;;;;;;;2.60;1.50;;;22.20;45.90;;;;;;4943198;29;20205;-23
2021/12/04 15:58:57;;;;;;;2.00;1.60;;;22.00;46.00;;;;;;4942784;29;20220;-23
2021/12/04 16:01:29;;;;;;;3.27;1.70;;;21.90;46.30;;;;;;4959112;29;20185;-23
2021/12/04 16:03:56;;;;;;;3.47;1.70;;;21.80;46.40;;;;;;4942293;29;20218;-22
2021/12/04 16:06:22;;;;;;;3.93;1.70;;;21.80;46.50;;;;;;4959107;29;20227;-22
2021/12/04 16:08:48;;;;;;;3.40;1.47;;;21.70;46.50;;;;;;4958996;29;20209;-23
2021/12/04 16:11:16;;;;;;;3.23;1.63;;;21.80;46.60;;;;;;4958637;28;20206;-23
2021/12/04 16:13:48;;;;;;;2.87;1.70;;;21.80;46.60;;;;;;4959755;29;20216;-23